sensor_id;sensor_type;location;lat;lon;timestamp;temperature;humidity
51908;DHT22;39320;53.214;6.556;2022-07-10T00:01:19;16.60;99.90
51908;DHT22;39320;53.214;6.556;2022-07-10T00:03:44;16.60;99.90
51908;DHT22;39320;53.214;6.556;2022-07-10T00:06:10;16.60;99.90
51908;DHT22;39320;53.214;6.556;2022-07-10T00:08:36;16.60;99.90
51908;DHT22;39320;53.214;6.556;2022-07-10T00:11:02;16.60;99.90
51908;DHT22;39320;53.214;6.556;2022-07-10T00:13:28;16.50;99.90
51908;DHT22;39320;53.214;6.556;2022-07-10T00:15:53;16.50;99.90
51908;DHT22;39320;53.214;6.556;2022-07-10T00:18:19;16.40;99.90
51908;DHT22;39320;53.214;6.556;2022-07-10T00:20:44;16.40;99.90
51908;DHT22;39320;53.214;6.556;2022-07-10T00:23:11;16.40;99.90
51908;DHT22;39320;53.214;6.556;2022-07-10T00:25:37;16.40;99.90
51908;DHT22;39320;53.214;6.556;2022-07-10T00:28:03;16.40;99.90
51908;DHT22;39320;53.214;6.556;2022-07-10T00:30:30;16.40;99.90
51908;DHT22;39320;53.214;6.556;2022-07-10T00:32:56;16.40;99.90
51908;DHT22;39320;53.214;6.556;2022-07-10T00:35:21;16.40;99.90
51908;DHT22;39320;53.214;6.556;2022-07-10T00:37:47;16.40;99.90
51908;DHT22;39320;53.214;6.556;2022-07-10T00:40:13;16.30;99.90
51908;DHT22;39320;53.214;6.556;2022-07-10T00:42:38;16.30;99.90
51908;DHT22;39320;53.214;6.556;2022-07-10T00:45:05;16.20;99.90
51908;DHT22;39320;53.214;6.556;2022-07-10T00:47:30;16.30;99.90
51908;DHT22;39320;53.214;6.556;2022-07-10T00:49:56;16.40;99.90
51908;DHT22;39320;53.214;6.556;2022-07-10T00:52:22;16.30;99.90
51908;DHT22;39320;53.214;6.556;2022-07-10T00:54:49;16.40;99.90
51908;DHT22;39320;53.214;6.556;2022-07-10T00:57:16;16.30;99.90
51908;DHT22;39320;53.214;6.556;2022-07-10T00:59:44;16.30;99.90
51908;DHT22;39320;53.214;6.556;2022-07-10T01:02:10;16.40;99.90
51908;DHT22;39320;53.214;6.556;2022-07-10T01:04:36;16.40;99.90
51908;DHT22;39320;53.214;6.556;2022-07-10T01:07:02;16.40;99.90
51908;DHT22;39320;53.214;6.556;2022-07-10T01:09:28;16.40;99.90
51908;DHT22;39320;53.214;6.556;2022-07-10T01:12:00;16.40;99.90
51908;DHT22;39320;53.214;6.556;2022-07-10T01:14:26;16.40;99.90
51908;DHT22;39320;53.214;6.556;2022-07-10T01:16:53;16.40;99.90
51908;DHT22;39320;53.214;6.556;2022-07-10T01:19:19;16.40;99.90
51908;DHT22;39320;53.214;6.556;2022-07-10T01:21:45;16.40;99.90
51908;DHT22;39320;53.214;6.556;2022-07-10T01:24:11;16.40;99.90
51908;DHT22;39320;53.214;6.556;2022-07-10T01:26:38;16.30;99.90
51908;DHT22;39320;53.214;6.556;2022-07-10T01:29:08;16.30;99.90
51908;DHT22;39320;53.214;6.556;2022-07-10T01:31:34;16.30;99.90
51908;DHT22;39320;53.214;6.556;2022-07-10T01:34:00;16.30;99.90
51908;DHT22;39320;53.214;6.556;2022-07-10T01:36:28;16.30;99.90
51908;DHT22;39320;53.214;6.556;2022-07-10T01:38:55;16.20;99.90
51908;DHT22;39320;53.214;6.556;2022-07-10T01:41:22;16.20;99.90
51908;DHT22;39320;53.214;6.556;2022-07-10T01:43:49;16.20;99.90
51908;DHT22;39320;53.214;6.556;2022-07-10T01:46:15;16.20;99.90
51908;DHT22;39320;53.214;6.556;2022-07-10T01:48:41;16.20;99.90
51908;DHT22;39320;53.214;6.556;2022-07-10T01:51:08;16.20;99.90
51908;DHT22;39320;53.214;6.556;2022-07-10T01:53:35;16.10;99.90
51908;DHT22;39320;53.214;6.556;2022-07-10T01:56:04;16.10;99.90
51908;DHT22;39320;53.214;6.556;2022-07-10T01:58:30;16.00;99.90
51908;DHT22;39320;53.214;6.556;2022-07-10T02:00:56;16.10;99.90
51908;DHT22;39320;53.214;6.556;2022-07-10T02:03:22;16.00;99.90
51908;DHT22;39320;53.214;6.556;2022-07-10T02:06:06;16.00;99.90
51908;DHT22;39320;53.214;6.556;2022-07-10T02:08:33;15.90;99.90
51908;DHT22;39320;53.214;6.556;2022-07-10T02:10:59;15.90;99.90
51908;DHT22;39320;53.214;6.556;2022-07-10T02:13:25;15.90;99.90
51908;DHT22;39320;53.214;6.556;2022-07-10T02:15:53;15.90;99.90
51908;DHT22;39320;53.214;6.556;2022-07-10T02:18:20;16.00;99.90
51908;DHT22;39320;53.214;6.556;2022-07-10T02:20:46;16.00;99.90
51908;DHT22;39320;53.214;6.556;2022-07-10T02:23:12;16.00;99.90
51908;DHT22;39320;53.214;6.556;2022-07-10T02:25:38;16.00;99.90
51908;DHT22;39320;53.214;6.556;2022-07-10T02:28:04;16.00;99.90
51908;DHT22;39320;53.214;6.556;2022-07-10T02:30:29;16.00;99.90
51908;DHT22;39320;53.214;6.556;2022-07-10T02:32:55;16.00;99.90
51908;DHT22;39320;53.214;6.556;2022-07-10T02:35:21;16.00;99.90
51908;DHT22;39320;53.214;6.556;2022-07-10T02:37:47;16.10;99.90
51908;DHT22;39320;53.214;6.556;2022-07-10T02:40:12;16.00;99.90
51908;DHT22;39320;53.214;6.556;2022-07-10T02:42:38;16.00;99.90
51908;DHT22;39320;53.214;6.556;2022-07-10T02:45:04;16.00;99.90
51908;DHT22;39320;53.214;6.556;2022-07-10T02:47:30;16.00;99.90
51908;DHT22;39320;53.214;6.556;2022-07-10T02:49:56;16.10;99.90
51908;DHT22;39320;53.214;6.556;2022-07-10T02:52:21;16.10;99.90
51908;DHT22;39320;53.214;6.556;2022-07-10T02:54:47;16.10;99.90
51908;DHT22;39320;53.214;6.556;2022-07-10T02:57:13;16.10;99.90
51908;DHT22;39320;53.214;6.556;2022-07-10T02:59:39;16.20;99.90
51908;DHT22;39320;53.214;6.556;2022-07-10T03:02:04;16.10;99.90
51908;DHT22;39320;53.214;6.556;2022-07-10T03:04:30;16.10;99.90
51908;DHT22;39320;53.214;6.556;2022-07-10T03:06:56;16.10;99.90
51908;DHT22;39320;53.214;6.556;2022-07-10T03:09:22;16.00;99.90
51908;DHT22;39320;53.214;6.556;2022-07-10T03:11:47;16.10;99.90
51908;DHT22;39320;53.214;6.556;2022-07-10T03:14:14;16.10;99.90
51908;DHT22;39320;53.214;6.556;2022-07-10T03:16:39;16.10;99.90
51908;DHT22;39320;53.214;6.556;2022-07-10T03:19:05;16.10;99.90
51908;DHT22;39320;53.214;6.556;2022-07-10T03:21:31;16.10;99.90
51908;DHT22;39320;53.214;6.556;2022-07-10T03:23:57;16.10;99.90
51908;DHT22;39320;53.214;6.556;2022-07-10T03:26:22;16.10;99.90
51908;DHT22;39320;53.214;6.556;2022-07-10T03:28:48;16.10;99.90
51908;DHT22;39320;53.214;6.556;2022-07-10T03:31:14;16.00;99.90
51908;DHT22;39320;53.214;6.556;2022-07-10T03:33:40;16.00;99.90
51908;DHT22;39320;53.214;6.556;2022-07-10T03:36:05;16.00;99.90
51908;DHT22;39320;53.214;6.556;2022-07-10T03:38:31;16.10;99.90
51908;DHT22;39320;53.214;6.556;2022-07-10T03:40:57;16.00;99.90
51908;DHT22;39320;53.214;6.556;2022-07-10T03:43:23;16.10;99.90
51908;DHT22;39320;53.214;6.556;2022-07-10T03:45:50;16.10;99.90
51908;DHT22;39320;53.214;6.556;2022-07-10T03:48:17;16.10;99.90
51908;DHT22;39320;53.214;6.556;2022-07-10T03:50:43;16.10;99.90
51908;DHT22;39320;53.214;6.556;2022-07-10T03:53:08;16.10;99.90
51908;DHT22;39320;53.214;6.556;2022-07-10T03:55:34;16.10;99.90
51908;DHT22;39320;53.214;6.556;2022-07-10T03:58:00;16.20;99.90
51908;DHT22;39320;53.214;6.556;2022-07-10T04:00:28;16.20;99.90
51908;DHT22;39320;53.214;6.556;2022-07-10T04:02:57;16.20;99.90
51908;DHT22;39320;53.214;6.556;2022-07-10T04:05:24;16.20;99.90
51908;DHT22;39320;53.214;6.556;2022-07-10T04:07:50;16.30;99.90
51908;DHT22;39320;53.214;6.556;2022-07-10T04:10:16;16.30;99.90
51908;DHT22;39320;53.214;6.556;2022-07-10T04:12:42;16.30;99.90
51908;DHT22;39320;53.214;6.556;2022-07-10T04:15:08;16.30;99.90
51908;DHT22;39320;53.214;6.556;2022-07-10T04:17:34;16.30;99.90
51908;DHT22;39320;53.214;6.556;2022-07-10T04:20:00;16.30;99.90
51908;DHT22;39320;53.214;6.556;2022-07-10T04:22:27;16.30;99.90
51908;DHT22;39320;53.214;6.556;2022-07-10T04:24:56;16.30;99.90
51908;DHT22;39320;53.214;6.556;2022-07-10T04:27:21;16.30;99.90
51908;DHT22;39320;53.214;6.556;2022-07-10T04:29:47;16.30;99.90
51908;DHT22;39320;53.214;6.556;2022-07-10T04:32:16;16.30;99.90
51908;DHT22;39320;53.214;6.556;2022-07-10T04:34:42;15.60;99.90
51908;DHT22;39320;53.214;6.556;2022-07-10T04:37:08;16.30;99.90
51908;DHT22;39320;53.214;6.556;2022-07-10T04:39:35;16.30;99.90
51908;DHT22;39320;53.214;6.556;2022-07-10T04:42:01;16.30;99.90
51908;DHT22;39320;53.214;6.556;2022-07-10T04:44:28;16.30;99.90
51908;DHT22;39320;53.214;6.556;2022-07-10T04:46:54;16.40;99.90
51908;DHT22;39320;53.214;6.556;2022-07-10T04:49:20;16.40;99.90
51908;DHT22;39320;53.214;6.556;2022-07-10T04:51:46;16.40;99.90
51908;DHT22;39320;53.214;6.556;2022-07-10T04:54:12;16.40;99.90
51908;DHT22;39320;53.214;6.556;2022-07-10T04:56:37;16.40;99.90
51908;DHT22;39320;53.214;6.556;2022-07-10T04:59:03;16.40;99.90
51908;DHT22;39320;53.214;6.556;2022-07-10T05:01:29;16.40;99.90
51908;DHT22;39320;53.214;6.556;2022-07-10T05:03:55;16.40;99.90
51908;DHT22;39320;53.214;6.556;2022-07-10T05:06:21;16.40;99.90
51908;DHT22;39320;53.214;6.556;2022-07-10T05:08:46;16.40;99.90
51908;DHT22;39320;53.214;6.556;2022-07-10T05:11:12;16.40;99.90
51908;DHT22;39320;53.214;6.556;2022-07-10T05:13:38;16.40;99.90
51908;DHT22;39320;53.214;6.556;2022-07-10T05:16:04;16.40;99.90
51908;DHT22;39320;53.214;6.556;2022-07-10T05:18:30;16.50;99.90
51908;DHT22;39320;53.214;6.556;2022-07-10T05:20:56;16.50;99.90
51908;DHT22;39320;53.214;6.556;2022-07-10T05:23:22;16.50;99.90
51908;DHT22;39320;53.214;6.556;2022-07-10T05:25:48;16.50;99.90
51908;DHT22;39320;53.214;6.556;2022-07-10T05:28:14;16.50;99.90
51908;DHT22;39320;53.214;6.556;2022-07-10T05:30:41;16.50;99.90
51908;DHT22;39320;53.214;6.556;2022-07-10T05:33:07;16.50;99.90
51908;DHT22;39320;53.214;6.556;2022-07-10T05:35:33;16.50;99.90
51908;DHT22;39320;53.214;6.556;2022-07-10T05:37:59;16.50;99.90
51908;DHT22;39320;53.214;6.556;2022-07-10T05:40:24;16.60;99.90
51908;DHT22;39320;53.214;6.556;2022-07-10T05:42:50;16.60;99.90
51908;DHT22;39320;53.214;6.556;2022-07-10T05:45:17;16.60;99.90
51908;DHT22;39320;53.214;6.556;2022-07-10T05:47:42;16.60;99.90
51908;DHT22;39320;53.214;6.556;2022-07-10T05:50:10;16.60;99.90
51908;DHT22;39320;53.214;6.556;2022-07-10T05:52:37;16.60;99.90
51908;DHT22;39320;53.214;6.556;2022-07-10T05:55:03;16.60;99.90
51908;DHT22;39320;53.214;6.556;2022-07-10T05:57:30;16.60;99.90
51908;DHT22;39320;53.214;6.556;2022-07-10T05:59:57;16.50;99.90
51908;DHT22;39320;53.214;6.556;2022-07-10T06:02:23;16.60;99.90
51908;DHT22;39320;53.214;6.556;2022-07-10T06:04:48;16.60;99.90
51908;DHT22;39320;53.214;6.556;2022-07-10T06:07:15;16.60;99.90
51908;DHT22;39320;53.214;6.556;2022-07-10T06:09:41;16.60;99.90
51908;DHT22;39320;53.214;6.556;2022-07-10T06:12:07;16.60;99.90
51908;DHT22;39320;53.214;6.556;2022-07-10T06:14:33;16.50;99.90
51908;DHT22;39320;53.214;6.556;2022-07-10T06:16:58;16.50;99.90
51908;DHT22;39320;53.214;6.556;2022-07-10T06:19:24;16.50;99.90
51908;DHT22;39320;53.214;6.556;2022-07-10T06:21:50;16.50;99.90
51908;DHT22;39320;53.214;6.556;2022-07-10T06:24:36;16.50;99.90
51908;DHT22;39320;53.214;6.556;2022-07-10T06:27:02;16.50;99.90
51908;DHT22;39320;53.214;6.556;2022-07-10T06:29:28;16.50;99.90
51908;DHT22;39320;53.214;6.556;2022-07-10T06:31:53;16.50;99.90
51908;DHT22;39320;53.214;6.556;2022-07-10T06:34:19;16.60;99.90
51908;DHT22;39320;53.214;6.556;2022-07-10T06:36:45;16.60;99.90
51908;DHT22;39320;53.214;6.556;2022-07-10T06:39:11;16.60;99.90
51908;DHT22;39320;53.214;6.556;2022-07-10T06:41:37;16.50;99.90
51908;DHT22;39320;53.214;6.556;2022-07-10T06:44:04;16.50;99.90
51908;DHT22;39320;53.214;6.556;2022-07-10T06:46:31;16.50;99.90
51908;DHT22;39320;53.214;6.556;2022-07-10T06:48:58;16.50;99.90
51908;DHT22;39320;53.214;6.556;2022-07-10T06:51:24;16.50;99.90
51908;DHT22;39320;53.214;6.556;2022-07-10T06:53:50;16.60;99.90
51908;DHT22;39320;53.214;6.556;2022-07-10T06:56:16;16.60;99.90
51908;DHT22;39320;53.214;6.556;2022-07-10T06:58:42;16.60;99.90
51908;DHT22;39320;53.214;6.556;2022-07-10T07:01:08;16.60;99.90
51908;DHT22;39320;53.214;6.556;2022-07-10T07:03:34;16.60;99.90
51908;DHT22;39320;53.214;6.556;2022-07-10T07:06:01;16.60;99.90
51908;DHT22;39320;53.214;6.556;2022-07-10T07:08:30;16.60;99.90
51908;DHT22;39320;53.214;6.556;2022-07-10T07:10:56;16.60;99.90
51908;DHT22;39320;53.214;6.556;2022-07-10T07:13:22;16.60;99.90
51908;DHT22;39320;53.214;6.556;2022-07-10T07:15:47;16.70;99.90
51908;DHT22;39320;53.214;6.556;2022-07-10T07:18:24;16.70;99.90
51908;DHT22;39320;53.214;6.556;2022-07-10T07:20:58;16.60;99.90
51908;DHT22;39320;53.214;6.556;2022-07-10T07:23:44;16.60;99.90
51908;DHT22;39320;53.214;6.556;2022-07-10T07:26:10;16.60;99.90
51908;DHT22;39320;53.214;6.556;2022-07-10T07:28:36;16.50;99.90
51908;DHT22;39320;53.214;6.556;2022-07-10T07:31:02;16.40;99.90
51908;DHT22;39320;53.214;6.556;2022-07-10T07:33:30;16.40;99.90
51908;DHT22;39320;53.214;6.556;2022-07-10T07:35:56;16.40;99.90
51908;DHT22;39320;53.214;6.556;2022-07-10T07:38:22;16.50;99.90
51908;DHT22;39320;53.214;6.556;2022-07-10T07:40:47;16.40;99.90
51908;DHT22;39320;53.214;6.556;2022-07-10T07:43:13;16.50;99.90
51908;DHT22;39320;53.214;6.556;2022-07-10T07:45:39;16.50;99.90
51908;DHT22;39320;53.214;6.556;2022-07-10T07:48:05;16.50;99.90
51908;DHT22;39320;53.214;6.556;2022-07-10T07:50:32;16.50;99.90
51908;DHT22;39320;53.214;6.556;2022-07-10T07:52:59;16.50;99.90
51908;DHT22;39320;53.214;6.556;2022-07-10T07:55:26;16.60;99.90
51908;DHT22;39320;53.214;6.556;2022-07-10T07:57:53;16.60;99.90
51908;DHT22;39320;53.214;6.556;2022-07-10T08:00:20;16.60;99.90
51908;DHT22;39320;53.214;6.556;2022-07-10T08:02:48;16.60;99.90
51908;DHT22;39320;53.214;6.556;2022-07-10T08:05:14;16.60;99.90
51908;DHT22;39320;53.214;6.556;2022-07-10T08:07:43;16.60;99.90
51908;DHT22;39320;53.214;6.556;2022-07-10T08:10:11;16.60;99.90
51908;DHT22;39320;53.214;6.556;2022-07-10T08:12:39;16.70;99.90
51908;DHT22;39320;53.214;6.556;2022-07-10T08:15:13;16.70;99.90
51908;DHT22;39320;53.214;6.556;2022-07-10T08:17:39;16.70;99.90
51908;DHT22;39320;53.214;6.556;2022-07-10T08:20:07;16.60;99.90
51908;DHT22;39320;53.214;6.556;2022-07-10T08:22:34;16.70;99.90
51908;DHT22;39320;53.214;6.556;2022-07-10T08:25:00;16.70;99.90
51908;DHT22;39320;53.214;6.556;2022-07-10T08:27:26;16.60;99.90
51908;DHT22;39320;53.214;6.556;2022-07-10T08:29:52;16.70;99.90
51908;DHT22;39320;53.214;6.556;2022-07-10T08:32:18;16.70;99.90
51908;DHT22;39320;53.214;6.556;2022-07-10T08:34:44;16.70;99.90
51908;DHT22;39320;53.214;6.556;2022-07-10T08:37:10;16.80;99.90
51908;DHT22;39320;53.214;6.556;2022-07-10T08:39:36;16.80;99.90
51908;DHT22;39320;53.214;6.556;2022-07-10T08:42:02;16.80;99.90
51908;DHT22;39320;53.214;6.556;2022-07-10T08:44:30;16.80;99.90
51908;DHT22;39320;53.214;6.556;2022-07-10T08:46:56;16.80;99.90
51908;DHT22;39320;53.214;6.556;2022-07-10T08:49:32;16.80;99.90
51908;DHT22;39320;53.214;6.556;2022-07-10T08:52:08;16.90;99.90
51908;DHT22;39320;53.214;6.556;2022-07-10T08:54:37;16.90;99.90
51908;DHT22;39320;53.214;6.556;2022-07-10T08:57:05;16.80;99.90
51908;DHT22;39320;53.214;6.556;2022-07-10T08:59:30;16.90;99.90
51908;DHT22;39320;53.214;6.556;2022-07-10T09:01:57;16.90;99.90
51908;DHT22;39320;53.214;6.556;2022-07-10T09:04:25;17.00;99.90
51908;DHT22;39320;53.214;6.556;2022-07-10T09:06:52;17.00;99.90
51908;DHT22;39320;53.214;6.556;2022-07-10T09:09:19;17.00;99.90
51908;DHT22;39320;53.214;6.556;2022-07-10T09:11:45;17.00;99.90
51908;DHT22;39320;53.214;6.556;2022-07-10T09:14:14;17.00;99.90
51908;DHT22;39320;53.214;6.556;2022-07-10T09:16:42;17.10;99.90
51908;DHT22;39320;53.214;6.556;2022-07-10T09:19:28;17.10;99.90
51908;DHT22;39320;53.214;6.556;2022-07-10T09:21:59;17.10;99.90
51908;DHT22;39320;53.214;6.556;2022-07-10T09:24:34;17.10;99.90
51908;DHT22;39320;53.214;6.556;2022-07-10T09:27:01;17.20;99.90
51908;DHT22;39320;53.214;6.556;2022-07-10T09:29:32;17.10;99.90
51908;DHT22;39320;53.214;6.556;2022-07-10T09:32:02;17.10;99.90
51908;DHT22;39320;53.214;6.556;2022-07-10T09:37:26;17.10;99.90
51908;DHT22;39320;53.214;6.556;2022-07-10T09:40:00;17.00;99.90
51908;DHT22;39320;53.214;6.556;2022-07-10T09:42:40;16.90;99.90
51908;DHT22;39320;53.214;6.556;2022-07-10T09:47:53;16.80;99.90
51908;DHT22;39320;53.214;6.556;2022-07-10T09:50:24;16.70;99.90
51908;DHT22;39320;53.214;6.556;2022-07-10T09:52:52;16.70;99.90
51908;DHT22;39320;53.214;6.556;2022-07-10T09:55:23;16.50;99.90
51908;DHT22;39320;53.214;6.556;2022-07-10T10:00:23;16.60;99.90
51908;DHT22;39320;53.214;6.556;2022-07-10T10:02:56;16.60;99.90
51908;DHT22;39320;53.214;6.556;2022-07-10T10:05:32;16.60;99.90
51908;DHT22;39320;53.214;6.556;2022-07-10T10:08:10;16.60;99.90
51908;DHT22;39320;53.214;6.556;2022-07-10T10:10:46;16.60;99.90
51908;DHT22;39320;53.214;6.556;2022-07-10T10:13:15;16.70;99.90
51908;DHT22;39320;53.214;6.556;2022-07-10T10:15:42;16.60;99.90
51908;DHT22;39320;53.214;6.556;2022-07-10T10:18:09;16.60;99.90
51908;DHT22;39320;53.214;6.556;2022-07-10T10:20:36;16.60;99.90
51908;DHT22;39320;53.214;6.556;2022-07-10T10:23:04;16.60;99.90
51908;DHT22;39320;53.214;6.556;2022-07-10T10:25:32;16.60;99.90
51908;DHT22;39320;53.214;6.556;2022-07-10T10:28:04;16.60;99.90
51908;DHT22;39320;53.214;6.556;2022-07-10T10:30:32;16.70;99.90
51908;DHT22;39320;53.214;6.556;2022-07-10T10:32:58;16.70;99.90
51908;DHT22;39320;53.214;6.556;2022-07-10T10:36:03;16.80;99.90
51908;DHT22;39320;53.214;6.556;2022-07-10T10:49:21;17.00;99.90
51908;DHT22;39320;53.214;6.556;2022-07-10T10:54:34;16.90;99.90
51908;DHT22;39320;53.214;6.556;2022-07-10T10:57:17;16.80;99.90
51908;DHT22;39320;53.214;6.556;2022-07-10T10:59:50;16.80;99.90
51908;DHT22;39320;53.214;6.556;2022-07-10T11:02:29;16.70;99.90
51908;DHT22;39320;53.214;6.556;2022-07-10T11:07:59;16.70;99.90
51908;DHT22;39320;53.214;6.556;2022-07-10T11:10:42;16.70;99.90
51908;DHT22;39320;53.214;6.556;2022-07-10T11:13:10;16.70;99.90
51908;DHT22;39320;53.214;6.556;2022-07-10T11:15:49;16.70;99.90
51908;DHT22;39320;53.214;6.556;2022-07-10T11:18:21;16.80;99.90
51908;DHT22;39320;53.214;6.556;2022-07-10T11:20:54;16.80;99.90
51908;DHT22;39320;53.214;6.556;2022-07-10T11:25:51;16.90;99.90
51908;DHT22;39320;53.214;6.556;2022-07-10T11:28:53;17.00;99.90
51908;DHT22;39320;53.214;6.556;2022-07-10T11:31:23;17.00;99.90
51908;DHT22;39320;53.214;6.556;2022-07-10T11:33:51;17.00;99.90
51908;DHT22;39320;53.214;6.556;2022-07-10T11:36:21;17.00;99.90
51908;DHT22;39320;53.214;6.556;2022-07-10T11:38:57;17.00;99.90
51908;DHT22;39320;53.214;6.556;2022-07-10T11:41:26;17.10;99.90
51908;DHT22;39320;53.214;6.556;2022-07-10T11:44:03;17.10;99.90
51908;DHT22;39320;53.214;6.556;2022-07-10T11:46:34;17.10;99.90
51908;DHT22;39320;53.214;6.556;2022-07-10T11:49:04;17.10;99.90
51908;DHT22;39320;53.214;6.556;2022-07-10T11:51:38;17.10;99.90
51908;DHT22;39320;53.214;6.556;2022-07-10T11:54:07;17.10;99.90
51908;DHT22;39320;53.214;6.556;2022-07-10T11:56:38;17.10;99.90
51908;DHT22;39320;53.214;6.556;2022-07-10T11:59:12;17.10;99.90
51908;DHT22;39320;53.214;6.556;2022-07-10T12:01:47;17.00;99.90
51908;DHT22;39320;53.214;6.556;2022-07-10T12:04:16;17.00;99.90
51908;DHT22;39320;53.214;6.556;2022-07-10T12:06:46;17.00;99.90
51908;DHT22;39320;53.214;6.556;2022-07-10T12:09:15;17.00;99.90
51908;DHT22;39320;53.214;6.556;2022-07-10T12:11:42;17.00;99.90
51908;DHT22;39320;53.214;6.556;2022-07-10T12:16:57;17.10;99.90
51908;DHT22;39320;53.214;6.556;2022-07-10T12:19:32;17.10;99.90
51908;DHT22;39320;53.214;6.556;2022-07-10T12:22:02;17.10;99.90
51908;DHT22;39320;53.214;6.556;2022-07-10T12:24:30;17.20;99.90
51908;DHT22;39320;53.214;6.556;2022-07-10T12:26:56;17.20;99.90
51908;DHT22;39320;53.214;6.556;2022-07-10T12:29:28;17.20;99.90
51908;DHT22;39320;53.214;6.556;2022-07-10T12:31:57;17.20;99.90
51908;DHT22;39320;53.214;6.556;2022-07-10T12:34:36;17.20;99.90
51908;DHT22;39320;53.214;6.556;2022-07-10T12:37:13;17.30;99.90
51908;DHT22;39320;53.214;6.556;2022-07-10T12:39:52;17.30;99.90
51908;DHT22;39320;53.214;6.556;2022-07-10T12:42:38;17.30;99.90
51908;DHT22;39320;53.214;6.556;2022-07-10T12:45:12;17.30;99.90
51908;DHT22;39320;53.214;6.556;2022-07-10T12:47:48;17.30;99.90
51908;DHT22;39320;53.214;6.556;2022-07-10T12:50:15;17.30;99.90
51908;DHT22;39320;53.214;6.556;2022-07-10T12:52:46;17.30;99.90
51908;DHT22;39320;53.214;6.556;2022-07-10T12:57:59;17.30;99.90
51908;DHT22;39320;53.214;6.556;2022-07-10T13:00:29;17.20;99.90
51908;DHT22;39320;53.214;6.556;2022-07-10T13:03:06;17.20;99.90
51908;DHT22;39320;53.214;6.556;2022-07-10T13:05:34;17.10;99.90
51908;DHT22;39320;53.214;6.556;2022-07-10T13:10:44;16.90;99.90
51908;DHT22;39320;53.214;6.556;2022-07-10T13:13:10;16.90;99.90
51908;DHT22;39320;53.214;6.556;2022-07-10T13:15:36;16.90;99.90
51908;DHT22;39320;53.214;6.556;2022-07-10T13:18:15;16.90;99.90
51908;DHT22;39320;53.214;6.556;2022-07-10T13:20:43;16.90;99.90
51908;DHT22;39320;53.214;6.556;2022-07-10T13:23:10;16.90;99.90
51908;DHT22;39320;53.214;6.556;2022-07-10T13:25:39;16.90;99.90
51908;DHT22;39320;53.214;6.556;2022-07-10T13:28:06;17.00;99.90
51908;DHT22;39320;53.214;6.556;2022-07-10T13:30:33;17.00;99.90
51908;DHT22;39320;53.214;6.556;2022-07-10T13:32:59;17.10;99.90
51908;DHT22;39320;53.214;6.556;2022-07-10T13:35:28;17.10;99.90
51908;DHT22;39320;53.214;6.556;2022-07-10T13:37:55;17.20;99.90
51908;DHT22;39320;53.214;6.556;2022-07-10T13:40:20;17.20;99.90
51908;DHT22;39320;53.214;6.556;2022-07-10T13:42:46;17.20;99.90
51908;DHT22;39320;53.214;6.556;2022-07-10T13:45:12;17.20;99.90
51908;DHT22;39320;53.214;6.556;2022-07-10T13:47:38;17.20;99.90
51908;DHT22;39320;53.214;6.556;2022-07-10T13:50:04;17.20;99.90
51908;DHT22;39320;53.214;6.556;2022-07-10T13:52:31;17.20;99.90
51908;DHT22;39320;53.214;6.556;2022-07-10T13:54:57;17.20;99.90
51908;DHT22;39320;53.214;6.556;2022-07-10T13:57:23;17.20;99.90
51908;DHT22;39320;53.214;6.556;2022-07-10T13:59:49;17.30;99.90
51908;DHT22;39320;53.214;6.556;2022-07-10T14:02:15;17.30;99.90
51908;DHT22;39320;53.214;6.556;2022-07-10T14:04:41;17.30;99.90
51908;DHT22;39320;53.214;6.556;2022-07-10T14:07:07;17.40;99.90
51908;DHT22;39320;53.214;6.556;2022-07-10T14:09:32;17.60;99.90
51908;DHT22;39320;53.214;6.556;2022-07-10T14:11:58;17.50;99.90
51908;DHT22;39320;53.214;6.556;2022-07-10T14:14:24;17.50;99.90
51908;DHT22;39320;53.214;6.556;2022-07-10T14:16:50;17.50;99.90
51908;DHT22;39320;53.214;6.556;2022-07-10T14:19:17;17.50;99.90
51908;DHT22;39320;53.214;6.556;2022-07-10T14:21:43;17.50;99.90
51908;DHT22;39320;53.214;6.556;2022-07-10T14:24:09;17.60;99.90
51908;DHT22;39320;53.214;6.556;2022-07-10T14:26:35;17.50;99.90
51908;DHT22;39320;53.214;6.556;2022-07-10T14:29:03;17.60;99.90
51908;DHT22;39320;53.214;6.556;2022-07-10T14:31:32;17.60;99.90
51908;DHT22;39320;53.214;6.556;2022-07-10T14:33:58;17.70;99.90
51908;DHT22;39320;53.214;6.556;2022-07-10T14:36:24;17.70;99.90
51908;DHT22;39320;53.214;6.556;2022-07-10T14:38:57;17.70;99.90
51908;DHT22;39320;53.214;6.556;2022-07-10T14:41:26;17.80;99.90
51908;DHT22;39320;53.214;6.556;2022-07-10T14:43:52;17.80;99.90
51908;DHT22;39320;53.214;6.556;2022-07-10T14:46:18;17.80;99.90
51908;DHT22;39320;53.214;6.556;2022-07-10T14:48:44;17.80;99.90
51908;DHT22;39320;53.214;6.556;2022-07-10T14:51:09;17.80;99.90
51908;DHT22;39320;53.214;6.556;2022-07-10T14:53:36;17.80;99.90
51908;DHT22;39320;53.214;6.556;2022-07-10T14:56:06;17.80;99.90
51908;DHT22;39320;53.214;6.556;2022-07-10T14:58:32;17.80;99.90
51908;DHT22;39320;53.214;6.556;2022-07-10T15:00:58;17.80;99.90
51908;DHT22;39320;53.214;6.556;2022-07-10T15:03:25;17.90;99.90
51908;DHT22;39320;53.214;6.556;2022-07-10T15:05:51;17.90;99.90
51908;DHT22;39320;53.214;6.556;2022-07-10T15:08:22;17.90;99.90
51908;DHT22;39320;53.214;6.556;2022-07-10T15:10:50;17.90;99.90
51908;DHT22;39320;53.214;6.556;2022-07-10T15:13:16;17.90;99.90
51908;DHT22;39320;53.214;6.556;2022-07-10T15:15:42;17.90;99.90
51908;DHT22;39320;53.214;6.556;2022-07-10T15:36:51;17.80;99.90
51908;DHT22;39320;53.214;6.556;2022-07-10T15:39:16;18.00;99.90
51908;DHT22;39320;53.214;6.556;2022-07-10T15:41:42;18.00;99.90
51908;DHT22;39320;53.214;6.556;2022-07-10T15:44:14;18.00;99.90
51908;DHT22;39320;53.214;6.556;2022-07-10T15:46:40;18.00;99.90
51908;DHT22;39320;53.214;6.556;2022-07-10T15:49:07;18.00;99.90
51908;DHT22;39320;53.214;6.556;2022-07-10T15:51:33;18.10;99.90
51908;DHT22;39320;53.214;6.556;2022-07-10T15:53:59;18.10;99.90
51908;DHT22;39320;53.214;6.556;2022-07-10T15:56:25;18.00;99.90
51908;DHT22;39320;53.214;6.556;2022-07-10T15:59:04;18.00;99.90
51908;DHT22;39320;53.214;6.556;2022-07-10T16:01:30;18.10;99.90
51908;DHT22;39320;53.214;6.556;2022-07-10T16:03:55;18.00;99.90
51908;DHT22;39320;53.214;6.556;2022-07-10T16:06:21;18.00;99.90
51908;DHT22;39320;53.214;6.556;2022-07-10T16:08:49;18.10;99.90
51908;DHT22;39320;53.214;6.556;2022-07-10T16:11:28;18.10;99.90
51908;DHT22;39320;53.214;6.556;2022-07-10T16:17:51;17.30;99.90
51908;DHT22;39320;53.214;6.556;2022-07-10T16:20:17;18.10;99.90
51908;DHT22;39320;53.214;6.556;2022-07-10T16:22:43;18.10;99.90
51908;DHT22;39320;53.214;6.556;2022-07-10T16:25:09;18.10;99.90
51908;DHT22;39320;53.214;6.556;2022-07-10T16:27:57;18.10;99.90
51908;DHT22;39320;53.214;6.556;2022-07-10T16:30:22;18.10;99.90
51908;DHT22;39320;53.214;6.556;2022-07-10T16:32:49;18.10;99.90